Hundvaag 1 weather for Apr 1996
Month no. 106
Obs.
Da.
Temp. Dew Point Precip. Wind
Speed
Wind gusts Cloud cover Press. Humidity Wind dir. Sunny OPT
01.04.1996 -3,3   0,0     10       1  
02.04.1996 -2,7   0,0     7       1  
03.04.1996 1,1   0,0     6       1  
04.04.1996 1,6   0,0     1       1  
05.04.1996 -1,0   0,0     10       1  
06.04.1996 -0,1   0,0     10       1  
07.04.1996 5,5   0,0     9       1  
08.04.1996 5,4   0,0     3       1  
09.04.1996 3,9   0,8     2       1  
10.04.1996 2,2   0,0     9       1  
11.04.1996 3,8   0,0     8       1  
12.04.1996 -0,3   0,0     10       1  
13.04.1996 -1,2   0,0     10       1  
14.04.1996 -1,5   0,0     10       1  
15.04.1996 2,7   0,0     0          
16.04.1996 7,0   0,3     3          
17.04.1996 9,8   0,0     0       1  
18.04.1996 8,5   0,9     0          
19.04.1996 6,5   12,3     0       1  
20.04.1996 7,7   2,7     1          
21.04.1996 8,4   3,9     0       1  
22.04.1996 5,6   1,0     5       1  
23.04.1996 7,4   0,8     1          
24.04.1996 7,5   0,1     3          
25.04.1996 7,4   1,4     0          
26.04.1996 5,2   15,2     8       1  
27.04.1996 7,7   4,7     0       1  
28.04.1996 7,1   4,2     0       1  
29.04.1996 3,0   0,7     3       1  
30.04.1996 1,4   0,0     10       1  
                       
Avrg/Sum 3,9   49,0     4,6       23